Time;durP1;ratioP1;P1;durP2;ratioP2;P2;SDS_P1;SDS_P2;PMS_P1;PMS_P2;Temp;Humidity;BMP_temperature;BMP_pressure;BME280_temperature;BME280_humidity;BME280_pressure;Samples;Min_cycle;Max_cycle;Signal;HPM_P1;HPM_P2
2020/12/21 00:01:24;;;;;;;8.13;2.45;;;8.40;99.90;;;;;;4159781;28;20033;-82
2020/12/21 00:03:25;;;;;;;11.57;2.53;;;8.40;99.90;;;;;;4156994;28;20049;-82
2020/12/21 00:05:25;;;;;;;7.72;2.58;;;8.40;99.90;;;;;;4166184;28;20033;-82
2020/12/21 00:07:26;;;;;;;8.75;2.20;;;8.40;99.90;;;;;;4141091;28;20052;-82
2020/12/21 00:09:26;;;;;;;9.75;2.78;;;8.40;99.90;;;;;;4158372;28;20025;-82
2020/12/21 00:11:39;;;;;;;8.43;2.58;;;8.40;99.90;;;;;;4158701;28;20030;-82
2020/12/21 00:13:45;;;;;;;7.07;2.67;;;8.40;99.90;;;;;;4161028;28;20730;-82
2020/12/21 00:15:46;;;;;;;6.95;2.53;;;8.30;99.90;;;;;;4180563;28;20051;-82
2020/12/21 00:17:46;;;;;;;7.95;2.03;;;8.30;99.90;;;;;;4157968;28;20552;-82
2020/12/21 00:19:47;;;;;;;7.63;2.35;;;8.30;99.90;;;;;;4158490;28;20038;-83
2020/12/21 00:21:49;;;;;;;8.70;2.58;;;8.30;99.90;;;;;;4140712;28;20066;-82
2020/12/21 00:23:51;;;;;;;7.30;2.05;;;8.30;99.90;;;;;;4158924;28;20033;-83
2020/12/21 00:25:52;;;;;;;7.30;2.38;;;8.30;99.90;;;;;;4163206;28;20040;-83
2020/12/21 00:27:52;;;;;;;9.50;2.20;;;8.20;99.90;;;;;;4146533;28;20632;-82
2020/12/21 00:29:53;;;;;;;6.13;2.25;;;8.20;99.90;;;;;;4164217;28;20033;-82
2020/12/21 00:31:56;;;;;;;12.23;2.72;;;8.20;99.90;;;;;;4146391;28;20056;-82
2020/12/21 00:33:57;;;;;;;10.18;2.83;;;8.20;99.90;;;;;;4171848;28;20041;-83
2020/12/21 00:35:58;;;;;;;8.13;2.60;;;8.20;99.90;;;;;;4158142;28;20040;-82
2020/12/21 00:37:59;;;;;;;7.90;2.30;;;8.20;99.90;;;;;;4147040;28;20481;-82
2020/12/21 00:40:00;;;;;;;9.10;2.55;;;8.20;99.90;;;;;;4159759;28;20052;-82
2020/12/21 00:42:00;;;;;;;7.13;2.35;;;8.20;99.90;;;;;;4142059;28;20501;-82
2020/12/21 00:44:02;;;;;;;7.05;2.38;;;8.10;99.90;;;;;;4158334;28;20111;-82
2020/12/21 00:46:02;;;;;;;7.70;2.40;;;8.10;99.90;;;;;;4152595;28;20030;-83
2020/12/21 00:48:04;;;;;;;11.18;2.42;;;8.10;99.90;;;;;;4165652;28;20032;-83
2020/12/21 00:50:05;;;;;;;10.23;2.25;;;8.20;99.90;;;;;;4161135;28;20036;-83
2020/12/21 00:52:06;;;;;;;7.07;2.25;;;8.10;99.90;;;;;;4158993;28;20052;-83
2020/12/21 00:54:06;;;;;;;11.02;2.50;;;8.10;99.90;;;;;;4172532;28;20021;-82
2020/12/21 00:56:07;;;;;;;7.13;2.25;;;8.10;99.90;;;;;;4161850;28;20289;-82
2020/12/21 00:58:08;;;;;;;8.20;2.05;;;8.10;99.90;;;;;;4141661;28;20030;-82
2020/12/21 01:00:09;;;;;;;7.28;2.13;;;8.10;99.90;;;;;;4170054;28;20025;-82
2020/12/21 01:02:09;;;;;;;7.38;2.30;;;8.10;99.90;;;;;;4157399;28;20041;-82
2020/12/21 01:04:10;;;;;;;10.43;2.47;;;8.10;99.90;;;;;;4172926;28;20022;-83
2020/12/21 01:06:12;;;;;;;6.63;2.25;;;8.10;99.90;;;;;;4169501;28;20034;-82
2020/12/21 01:08:13;;;;;;;;;;;8.10;99.90;;;;;;4166509;28;20030;-82
2020/12/21 01:10:14;;;;;;;5.20;2.00;;;8.10;99.90;;;;;;4166316;28;20013;-82
2020/12/21 01:12:15;;;;;;;8.90;2.15;;;8.10;99.90;;;;;;4158694;28;20404;-82
2020/12/21 01:14:16;;;;;;;9.27;2.53;;;8.10;99.90;;;;;;4157065;28;20033;-82
2020/12/21 01:16:20;;;;;;;10.80;2.70;;;8.00;99.90;;;;;;4185136;28;20509;-82
2020/12/21 01:18:20;;;;;;;8.90;2.42;;;8.00;99.90;;;;;;4166584;28;20052;-82
2020/12/21 01:20:21;;;;;;;6.70;2.30;;;8.00;99.90;;;;;;4152815;28;20038;-82
2020/12/21 01:22:21;;;;;;;9.30;2.40;;;8.00;99.90;;;;;;4160946;28;20044;-82
2020/12/21 01:24:22;;;;;;;7.47;2.28;;;7.90;99.90;;;;;;4161080;28;20121;-82
2020/12/21 01:26:23;;;;;;;10.00;2.42;;;7.90;99.90;;;;;;4162754;28;20352;-82
2020/12/21 01:28:24;;;;;;;6.88;2.60;;;7.90;99.90;;;;;;4153179;28;20038;-82
2020/12/21 01:30:25;;;;;;;10.02;2.75;;;7.90;99.90;;;;;;4146019;28;20260;-82
2020/12/21 01:32:27;;;;;;;12.77;3.13;;;7.90;99.90;;;;;;4161958;28;20112;-82
2020/12/21 01:34:27;;;;;;;8.77;2.78;;;7.90;99.90;;;;;;4167982;28;20033;-82
2020/12/21 01:36:28;;;;;;;8.82;3.03;;;7.90;99.90;;;;;;4160424;28;20091;-82
2020/12/21 01:38:28;;;;;;;6.75;1.85;;;7.90;99.90;;;;;;4169575;28;20029;-82
2020/12/21 01:40:29;;;;;;;8.30;2.50;;;7.90;99.90;;;;;;4152034;28;20145;-82
2020/12/21 01:42:30;;;;;;;8.75;2.55;;;7.80;99.90;;;;;;4177393;28;20029;-82
2020/12/21 01:44:31;;;;;;;15.18;3.28;;;7.80;99.90;;;;;;4169058;28;20029;-82
2020/12/21 01:46:31;;;;;;;11.52;2.85;;;7.90;99.90;;;;;;4152535;28;20045;-82
2020/12/21 01:48:32;;;;;;;8.07;2.20;;;7.80;99.90;;;;;;4161930;28;20068;-82
2020/12/21 01:50:33;;;;;;;7.85;2.28;;;7.80;99.90;;;;;;4149251;28;20109;-82
2020/12/21 01:52:34;;;;;;;7.43;2.33;;;7.80;99.90;;;;;;4160149;28;20644;-83
2020/12/21 01:54:36;;;;;;;7.78;2.00;;;7.80;99.90;;;;;;4155060;28;20144;-83
2020/12/21 01:56:38;;;;;;;7.93;2.33;;;7.80;99.90;;;;;;4177179;28;20033;-82
2020/12/21 01:58:38;;;;;;;7.72;2.08;;;7.80;99.90;;;;;;4160905;28;20109;-82
2020/12/21 02:00:39;;;;;;;7.53;2.35;;;7.80;99.90;;;;;;4176621;28;20094;-82
2020/12/21 02:02:40;;;;;;;10.68;2.55;;;7.70;99.90;;;;;;4155173;28;20071;-82
2020/12/21 02:04:41;;;;;;;7.68;2.08;;;7.70;99.90;;;;;;4162928;28;20030;-83
2020/12/21 02:06:41;;;;;;;7.50;2.08;;;7.70;99.90;;;;;;4167330;28;20036;-82
2020/12/21 02:08:42;;;;;;;7.65;2.40;;;7.70;99.90;;;;;;4150143;28;20503;-82
2020/12/21 02:10:43;;;;;;;11.43;2.10;;;7.70;99.90;;;;;;4169060;28;20095;-82
2020/12/21 02:12:43;;;;;;;9.25;2.47;;;7.70;99.90;;;;;;4162004;28;20550;-82
2020/12/21 02:14:44;;;;;;;9.52;2.17;;;7.70;99.90;;;;;;4152340;28;20030;-82
2020/12/21 02:16:44;;;;;;;11.88;2.58;;;7.70;99.90;;;;;;4159724;28;20081;-82
2020/12/21 02:18:45;;;;;;;7.63;2.40;;;7.70;99.90;;;;;;4162895;28;20043;-82
2020/12/21 02:20:45;;;;;;;8.02;2.03;;;7.70;99.90;;;;;;4170038;28;20033;-83
2020/12/21 02:22:46;;;;;;;7.18;2.20;;;7.70;99.90;;;;;;4168200;28;20505;-82
2020/12/21 02:24:46;;;;;;;11.05;2.20;;;7.60;99.90;;;;;;4160185;28;20473;-82
2020/12/21 02:26:47;;;;;;;9.07;2.70;;;7.60;99.90;;;;;;4165125;28;20033;-82
2020/12/21 02:28:52;;;;;;;5.00;1.88;;;7.60;99.90;;;;;;4147965;28;20029;-82
2020/12/21 02:30:53;;;;;;;11.50;2.00;;;7.60;99.90;;;;;;4160639;28;20033;-82
2020/12/21 02:32:54;;;;;;;4.95;1.98;;;7.50;99.90;;;;;;4165068;28;20231;-83
2020/12/21 02:34:54;;;;;;;6.25;1.77;;;7.50;99.90;;;;;;4148395;28;20041;-82
2020/12/21 02:36:55;;;;;;;10.10;2.15;;;7.50;99.90;;;;;;4173712;28;20029;-82
2020/12/21 02:38:57;;;;;;;5.20;1.73;;;7.50;99.90;;;;;;4160397;28;20468;-82
2020/12/21 02:40:58;;;;;;;5.55;2.00;;;7.50;99.90;;;;;;4170310;28;20036;-82
2020/12/21 02:42:58;;;;;;;6.32;2.08;;;7.50;99.90;;;;;;4180071;28;20033;-82
2020/12/21 02:44:59;;;;;;;8.20;2.17;;;7.50;99.90;;;;;;4149020;28;20150;-82
2020/12/21 02:47:00;;;;;;;7.03;2.20;;;7.50;99.90;;;;;;4167350;28;20029;-82
2020/12/21 02:49:00;;;;;;;8.70;2.55;;;7.50;99.90;;;;;;4149481;28;20089;-82
2020/12/21 02:51:01;;;;;;;6.25;2.15;;;7.50;99.90;;;;;;4160582;28;20048;-82
2020/12/21 02:53:02;;;;;;;9.25;2.10;;;7.50;99.90;;;;;;4143509;28;20505;-82
2020/12/21 02:55:05;;;;;;;10.95;2.30;;;7.50;99.90;;;;;;4149189;28;20466;-83
2020/12/21 02:57:05;;;;;;;7.95;2.25;;;7.40;99.90;;;;;;4170279;28;20320;-82
2020/12/21 02:59:06;;;;;;;5.47;2.03;;;7.50;99.90;;;;;;4160529;28;20312;-82
2020/12/21 03:01:06;;;;;;;9.38;1.80;;;7.50;99.90;;;;;;4157654;28;20116;-83
2020/12/21 03:03:07;;;;;;;8.52;2.08;;;7.50;99.90;;;;;;4158832;28;20087;-82
2020/12/21 03:05:08;;;;;;;6.63;1.80;;;7.40;99.90;;;;;;4146365;28;20026;-82
2020/12/21 03:07:09;;;;;;;4.30;2.15;;;7.40;99.90;;;;;;4146130;28;20026;-83
2020/12/21 03:09:09;;;;;;;6.32;1.90;;;7.40;99.90;;;;;;4143128;28;20382;-83
2020/12/21 03:11:10;;;;;;;9.75;2.00;;;7.40;99.90;;;;;;4174296;28;20428;-82
2020/12/21 03:13:11;;;;;;;7.13;1.80;;;7.50;99.90;;;;;;4169672;28;20091;-82
2020/12/21 03:15:11;;;;;;;4.55;2.00;;;7.40;99.90;;;;;;4167663;28;20310;-82
2020/12/21 03:17:13;;;;;;;4.67;1.50;;;7.50;99.90;;;;;;4165637;28;20033;-82
2020/12/21 03:19:14;;;;;;;8.30;2.05;;;7.40;99.90;;;;;;4160415;28;20363;-82
2020/12/21 03:21:15;;;;;;;6.60;2.38;;;7.50;99.90;;;;;;4154294;28;20085;-82
2020/12/21 03:23:15;;;;;;;8.20;2.08;;;7.50;99.90;;;;;;4168670;28;20065;-82
2020/12/21 03:25:16;;;;;;;7.50;1.95;;;7.50;99.90;;;;;;4167705;28;20031;-83
2020/12/21 03:27:17;;;;;;;5.07;1.52;;;7.50;99.90;;;;;;4159191;28;20049;-82
2020/12/21 03:29:17;;;;;;;9.32;1.63;;;7.50;99.90;;;;;;4158927;28;20060;-82
2020/12/21 03:31:18;;;;;;;7.75;1.77;;;7.50;99.90;;;;;;4171522;28;20034;-82
2020/12/21 03:33:19;;;;;;;10.18;2.17;;;7.50;99.90;;;;;;4159267;28;20131;-82
2020/12/21 03:35:19;;;;;;;5.40;1.92;;;7.50;99.90;;;;;;4158678;28;20053;-82
2020/12/21 03:37:20;;;;;;;6.45;2.25;;;7.40;99.90;;;;;;4172891;28;20034;-82
2020/12/21 03:39:20;;;;;;;6.68;1.83;;;7.50;99.90;;;;;;4160341;28;20034;-82
2020/12/21 03:41:21;;;;;;;6.15;1.90;;;7.50;99.90;;;;;;4166151;28;20042;-83
2020/12/21 03:43:22;;;;;;;6.63;1.75;;;7.50;99.90;;;;;;4159350;28;20533;-82
2020/12/21 03:45:23;;;;;;;6.00;2.10;;;7.50;99.90;;;;;;4143180;28;20125;-82
2020/12/21 03:47:24;;;;;;;4.32;1.73;;;7.50;99.90;;;;;;4171501;28;20507;-82
2020/12/21 03:49:24;;;;;;;6.55;2.08;;;7.60;99.90;;;;;;4159651;28;20065;-82
2020/12/21 03:51:25;;;;;;;10.25;2.10;;;7.50;99.90;;;;;;4144180;28;20034;-82
2020/12/21 03:53:25;;;;;;;6.20;1.65;;;7.50;99.90;;;;;;4167131;28;20061;-82
2020/12/21 03:55:26;;;;;;;7.18;2.22;;;7.50;99.90;;;;;;4143608;28;20030;-82
2020/12/21 03:57:26;;;;;;;6.80;2.28;;;7.50;99.90;;;;;;4159384;28;20133;-82
2020/12/21 03:59:27;;;;;;;6.85;2.00;;;7.40;99.90;;;;;;4166973;28;20033;-82
2020/12/21 04:01:28;;;;;;;7.05;2.20;;;7.40;99.90;;;;;;4157840;28;20037;-82
2020/12/21 04:03:29;;;;;;;10.40;2.42;;;7.40;99.90;;;;;;4159926;28;20045;-82
2020/12/21 04:05:30;;;;;;;5.65;1.98;;;7.30;99.90;;;;;;4159619;28;20033;-82
2020/12/21 04:07:31;;;;;;;5.95;2.22;;;7.30;99.90;;;;;;4170955;28;20164;-82
2020/12/21 04:09:35;;;;;;;8.65;2.08;;;7.30;99.90;;;;;;4174010;28;20044;-82
2020/12/21 04:11:36;;;;;;;8.43;2.20;;;7.30;99.90;;;;;;4148011;28;20061;-82
2020/12/21 04:13:37;;;;;;;7.60;2.03;;;7.30;99.90;;;;;;4173812;28;20033;-82
2020/12/21 04:15:37;;;;;;;5.65;2.20;;;7.30;99.90;;;;;;4160989;28;20140;-82
2020/12/21 04:17:38;;;;;;;6.85;2.22;;;7.30;99.90;;;;;;4148266;28;20100;-82
2020/12/21 04:19:39;;;;;;;9.40;2.20;;;7.30;99.90;;;;;;4158628;28;20030;-82
2020/12/21 04:21:39;;;;;;;3.70;1.92;;;7.30;99.90;;;;;;4157926;28;20041;-82
2020/12/21 04:23:40;;;;;;;7.38;2.25;;;7.30;99.90;;;;;;4143008;28;20489;-82
2020/12/21 04:25:41;;;;;;;4.93;1.80;;;7.30;99.90;;;;;;4158036;28;20030;-83
2020/12/21 04:27:41;;;;;;;7.63;2.20;;;7.30;99.90;;;;;;4145075;28;20087;-82
2020/12/21 04:29:42;;;;;;;8.98;2.00;;;7.30;99.90;;;;;;4147612;28;20032;-82
2020/12/21 04:31:43;;;;;;;8.75;2.20;;;7.20;99.90;;;;;;4144617;28;20030;-82
2020/12/21 04:33:43;;;;;;;7.45;2.13;;;7.20;99.90;;;;;;4156082;28;20458;-82
2020/12/21 04:35:45;;;;;;;5.00;1.70;;;7.20;99.90;;;;;;4157836;28;20033;-82
2020/12/21 04:37:46;;;;;;;8.02;2.00;;;7.20;99.90;;;;;;4161814;28;20132;-82
2020/12/21 04:39:46;;;;;;;4.93;1.75;;;7.10;99.90;;;;;;4158154;28;20026;-82
2020/12/21 04:41:55;;;;;;;8.32;2.28;;;7.10;99.90;;;;;;4154122;28;20037;-83
2020/12/21 04:43:56;;;;;;;7.10;2.20;;;7.10;99.90;;;;;;4158985;28;20021;-82
2020/12/21 04:46:00;;;;;;;8.15;2.25;;;7.10;99.90;;;;;;4162602;28;20121;-83
2020/12/21 04:48:07;;;;;;;10.40;2.60;;;7.10;99.90;;;;;;4170103;28;20044;-83
2020/12/21 04:50:10;;;;;;;6.55;1.60;;;7.00;99.90;;;;;;4144344;28;20034;-82
2020/12/21 04:52:12;;;;;;;8.15;2.00;;;7.00;99.90;;;;;;4167546;28;20033;-82
2020/12/21 04:54:14;;;;;;;10.13;2.63;;;7.00;99.90;;;;;;4146152;28;20026;-82
2020/12/21 04:56:15;;;;;;;12.82;2.67;;;7.00;99.90;;;;;;4161265;28;20061;-82
2020/12/21 04:58:16;;;;;;;7.90;2.10;;;7.00;99.90;;;;;;4147417;28;20029;-83
2020/12/21 05:00:16;;;;;;;6.03;2.17;;;6.90;99.90;;;;;;4187310;28;20094;-83
2020/12/21 05:02:17;;;;;;;5.80;1.88;;;6.90;99.90;;;;;;4150675;28;20124;-83
2020/12/21 05:04:18;;;;;;;6.97;2.15;;;7.00;99.90;;;;;;4151893;28;20028;-82
2020/12/21 05:06:18;;;;;;;7.50;1.77;;;6.90;99.90;;;;;;4162121;28;20303;-83
2020/12/21 05:08:21;;;;;;;7.18;1.77;;;6.90;99.90;;;;;;4153918;28;20504;-82
2020/12/21 05:10:22;;;;;;;9.90;2.72;;;6.90;99.90;;;;;;4152612;28;20517;-83
2020/12/21 05:12:22;;;;;;;13.02;2.05;;;7.00;99.90;;;;;;4161533;28;20116;-82
2020/12/21 05:14:37;;;;;;;6.93;2.05;;;7.00;99.90;;;;;;4144823;28;20033;-82
2020/12/21 05:16:38;;;;;;;5.63;1.88;;;7.00;99.90;;;;;;4146882;28;20038;-82
2020/12/21 05:18:42;;;;;;;9.60;2.10;;;7.00;99.90;;;;;;4177925;28;20500;-82
2020/12/21 05:20:53;;;;;;;8.23;2.00;;;7.00;99.90;;;;;;4170659;28;20039;-82
2020/12/21 05:22:54;;;;;;;8.25;1.90;;;7.00;99.90;;;;;;4149828;28;20193;-82
2020/12/21 05:25:04;;;;;;;8.18;2.33;;;7.00;99.90;;;;;;4163494;28;20497;-82
2020/12/21 05:27:16;;;;;;;5.25;1.75;;;7.10;99.90;;;;;;4162144;28;20405;-82
2020/12/21 05:29:26;;;;;;;7.35;1.95;;;7.10;99.90;;;;;;4166532;28;20041;-82
2020/12/21 05:31:28;;;;;;;7.22;1.80;;;7.10;99.90;;;;;;4155800;28;20044;-82
2020/12/21 05:33:29;;;;;;;11.20;2.20;;;7.10;99.90;;;;;;4176477;28;20033;-82
2020/12/21 05:35:30;;;;;;;6.55;1.88;;;7.10;99.90;;;;;;4162520;28;20065;-82
2020/12/21 05:37:31;;;;;;;9.40;2.22;;;7.10;99.90;;;;;;4165615;28;20029;-83
2020/12/21 05:39:31;;;;;;;6.88;2.20;;;7.10;99.90;;;;;;4169413;28;20038;-83
2020/12/21 05:41:32;;;;;;;7.65;2.17;;;7.20;99.90;;;;;;4140637;28;20072;-82
2020/12/21 05:43:33;;;;;;;8.23;2.03;;;7.10;99.90;;;;;;4158899;28;20037;-82
2020/12/21 05:45:33;;;;;;;7.72;2.00;;;7.20;99.90;;;;;;4170030;28;20541;-83
2020/12/21 05:47:34;;;;;;;6.68;1.92;;;7.10;99.90;;;;;;4164265;28;20044;-84
2020/12/21 05:49:42;;;;;;;6.97;2.05;;;7.20;99.90;;;;;;4158893;28;20026;-82
2020/12/21 05:51:47;;;;;;;11.95;2.25;;;7.20;99.90;;;;;;4160552;28;20084;-82
2020/12/21 05:53:54;;;;;;;13.15;3.00;;;7.20;99.90;;;;;;4162078;28;20485;-82
2020/12/21 05:55:55;;;;;;;9.98;2.03;;;7.10;99.90;;;;;;4153257;28;20137;-82
2020/12/21 05:57:59;;;;;;;6.50;1.88;;;7.10;99.90;;;;;;4161025;28;20033;-82
2020/12/21 06:00:00;;;;;;;11.18;2.03;;;7.10;99.90;;;;;;4156826;28;20521;-83
2020/12/21 06:02:01;;;;;;;5.88;2.38;;;7.10;99.90;;;;;;4149871;28;20030;-82
2020/12/21 06:04:03;;;;;;;8.70;1.98;;;7.10;99.90;;;;;;4175582;28;20025;-82
2020/12/21 06:06:08;;;;;;;11.85;2.75;;;7.10;99.90;;;;;;4177541;28;20041;-83
2020/12/21 06:08:15;;;;;;;5.38;2.10;;;7.10;99.90;;;;;;4174956;28;20472;-82
2020/12/21 06:10:16;;;;;;;8.50;2.22;;;7.10;99.90;;;;;;4159421;28;20053;-82
2020/12/21 06:12:22;;;;;;;7.55;2.15;;;7.10;99.90;;;;;;4160852;28;20040;-82
2020/12/21 06:14:23;;;;;;;9.43;2.13;;;7.10;99.90;;;;;;4158933;28;20312;-83
2020/12/21 06:16:25;;;;;;;8.23;1.70;;;7.10;99.90;;;;;;4153353;28;20042;-82
2020/12/21 06:18:26;;;;;;;7.85;2.17;;;7.10;99.90;;;;;;4161693;28;20047;-83
2020/12/21 06:20:27;;;;;;;11.93;2.47;;;7.10;99.90;;;;;;4156243;28;20037;-82
2020/12/21 06:22:29;;;;;;;5.32;2.00;;;7.10;99.90;;;;;;4161903;28;20095;-82
2020/12/21 06:24:38;;;;;;;8.02;2.65;;;7.10;99.90;;;;;;4165875;28;20079;-82
2020/12/21 06:26:38;;;;;;;6.13;2.03;;;7.10;99.90;;;;;;4163902;28;20357;-82
2020/12/21 06:28:41;;;;;;;9.15;2.10;;;7.10;99.90;;;;;;4176246;28;20021;-82
2020/12/21 06:30:42;;;;;;;;;;;7.10;99.90;;;;;;4168087;28;20443;-82
2020/12/21 06:32:42;;;;;;;7.70;2.10;;;7.10;99.90;;;;;;4159922;28;19913;-82
2020/12/21 06:34:43;;;;;;;9.65;2.05;;;7.20;99.90;;;;;;4161705;28;20071;-83
2020/12/21 06:36:46;;;;;;;7.97;2.30;;;7.10;99.90;;;;;;4163422;28;20025;-82
2020/12/21 06:38:56;;;;;;;7.07;2.05;;;7.20;99.90;;;;;;4111176;28;20025;-82
2020/12/21 06:40:57;;;;;;;10.40;2.13;;;7.10;99.90;;;;;;4147438;28;20063;-82
2020/12/21 06:43:12;;;;;;;5.68;1.90;;;7.20;99.90;;;;;;4165619;28;20063;-82
2020/12/21 06:45:12;;;;;;;9.20;2.60;;;7.20;99.90;;;;;;4168145;28;20057;-82
2020/12/21 06:47:13;;;;;;;7.15;1.65;;;7.20;99.90;;;;;;4155500;28;20033;-83
2020/12/21 06:49:20;;;;;;;9.57;2.25;;;7.20;99.90;;;;;;4164328;28;20557;-82
2020/12/21 06:51:23;;;;;;;8.40;1.88;;;7.10;99.90;;;;;;4163405;28;20069;-82
2020/12/21 06:53:24;;;;;;;8.60;2.25;;;7.20;99.90;;;;;;4148425;28;20061;-82
2020/12/21 06:55:35;;;;;;;4.25;1.85;;;7.10;99.90;;;;;;4168657;28;20046;-82
2020/12/21 06:57:42;;;;;;;8.88;1.80;;;7.10;99.90;;;;;;4148496;28;20069;-82
2020/12/21 06:59:42;;;;;;;7.18;1.95;;;7.10;99.90;;;;;;4151302;28;20065;-82
2020/12/21 07:01:45;;;;;;;7.47;2.28;;;7.20;99.90;;;;;;4150564;28;20045;-82
2020/12/21 07:03:46;;;;;;;;;;;7.10;99.90;;;;;;4166573;28;20043;-82
2020/12/21 07:05:57;;;;;;;10.18;2.65;;;7.20;99.90;;;;;;4146278;28;19913;-83
2020/12/21 07:08:00;;;;;;;8.48;2.20;;;7.20;99.90;;;;;;4165113;28;20041;-83
2020/12/21 07:10:01;;;;;;;8.07;2.13;;;7.10;99.90;;;;;;4187918;28;20103;-83
2020/12/21 07:12:03;;;;;;;10.77;2.42;;;7.10;99.90;;;;;;4175077;28;20029;-83
2020/12/21 07:14:05;;;;;;;8.45;2.00;;;7.10;99.90;;;;;;4159213;28;20460;-82
2020/12/21 07:16:06;;;;;;;6.43;2.28;;;7.10;99.90;;;;;;4151552;28;20037;-82
2020/12/21 07:18:10;;;;;;;9.13;3.10;;;7.10;99.90;;;;;;4162252;28;20111;-82
2020/12/21 07:20:12;;;;;;;8.32;2.58;;;7.10;99.90;;;;;;4160397;28;20038;-80
2020/12/21 07:22:13;;;;;;;8.93;2.78;;;7.10;99.90;;;;;;4183809;28;20405;-81
2020/12/21 07:24:14;;;;;;;7.95;3.15;;;7.20;99.90;;;;;;4167884;28;20841;-80
2020/12/21 07:26:15;;;;;;;9.90;3.70;;;7.20;99.90;;;;;;4149200;28;20030;-80
2020/12/21 07:28:26;;;;;;;10.48;3.47;;;7.20;99.90;;;;;;4168400;28;20025;-81
2020/12/21 07:30:29;;;;;;;10.38;3.67;;;7.20;99.90;;;;;;4143629;28;20061;-80
2020/12/21 07:32:30;;;;;;;10.80;3.90;;;7.20;99.90;;;;;;4164847;28;20052;-80
2020/12/21 07:34:40;;;;;;;9.27;4.07;;;7.20;99.90;;;;;;4138721;28;20191;-82
2020/12/21 07:36:40;;;;;;;13.43;3.42;;;7.20;99.90;;;;;;4155392;28;20045;-80
2020/12/21 07:38:44;;;;;;;10.05;3.78;;;7.20;99.90;;;;;;4162520;28;20437;-81
2020/12/21 07:40:45;;;;;;;8.10;2.83;;;7.20;99.90;;;;;;4143366;28;20033;-81
2020/12/21 07:43:04;;;;;;;12.13;2.97;;;7.20;99.90;;;;;;4177316;28;20514;-81
2020/12/21 07:45:21;;;;;;;6.70;2.65;;;7.20;99.90;;;;;;4172574;28;20508;-80
2020/12/21 07:47:25;;;;;;;7.38;2.83;;;7.30;99.90;;;;;;4163426;28;20037;-81
2020/12/21 07:49:26;;;;;;;11.13;3.60;;;7.30;99.90;;;;;;4160911;28;20045;-81
2020/12/21 07:51:27;;;;;;;14.38;3.13;;;7.20;99.90;;;;;;4149584;28;20117;-80
2020/12/21 07:53:38;;;;;;;7.10;2.33;;;7.30;99.90;;;;;;4163225;28;20042;-81
2020/12/21 07:55:39;;;;;;;16.88;3.33;;;7.30;99.90;;;;;;4156490;28;20041;-80
2020/12/21 07:57:39;;;;;;;14.25;3.22;;;7.30;99.90;;;;;;4160874;28;20609;-81
2020/12/21 07:59:41;;;;;;;16.58;3.75;;;7.30;99.90;;;;;;4143421;28;20096;-83
2020/12/21 08:01:46;;;;;;;10.55;2.65;;;7.30;99.90;;;;;;4153047;28;20124;-81
2020/12/21 08:03:52;;;;;;;11.55;2.97;;;7.30;99.90;;;;;;4161084;28;20033;-80
2020/12/21 08:06:18;;;;;;;13.57;3.15;;;7.30;99.90;;;;;;4164436;28;20477;-80
2020/12/21 08:08:22;;;;;;;12.57;3.38;;;7.30;99.90;;;;;;4184211;28;20041;-81
2020/12/21 08:10:23;;;;;;;11.93;2.97;;;7.30;99.90;;;;;;4158698;28;20516;-80
2020/12/21 08:12:30;;;;;;;12.43;3.20;;;7.40;99.90;;;;;;4157868;28;20096;-80
2020/12/21 08:14:40;;;;;;;8.77;2.35;;;7.40;99.90;;;;;;4162930;28;20025;-80
2020/12/21 08:16:44;;;;;;;9.98;3.33;;;7.40;99.90;;;;;;4146629;28;20030;-81
2020/12/21 08:18:45;;;;;;;9.43;3.00;;;7.40;99.90;;;;;;4163093;28;20534;-81
2020/12/21 08:20:50;;;;;;;11.38;3.10;;;7.50;99.90;;;;;;4167451;28;20022;-81
2020/12/21 08:22:50;;;;;;;8.07;3.03;;;7.40;99.90;;;;;;4167555;28;20622;-81
2020/12/21 08:25:11;;;;;;;11.63;3.33;;;7.40;99.90;;;;;;4160263;28;20037;-80
2020/12/21 08:27:20;;;;;;;11.48;3.35;;;7.50;99.90;;;;;;4141781;28;20029;-80
2020/12/21 08:29:22;;;;;;;11.90;3.40;;;7.50;99.90;;;;;;4144836;28;20038;-84
2020/12/21 08:31:24;;;;;;;11.65;3.35;;;7.50;99.90;;;;;;4156131;28;20060;-81
2020/12/21 08:33:24;;;;;;;8.25;2.92;;;7.60;99.90;;;;;;4165670;28;20045;-81
2020/12/21 08:35:29;;;;;;;8.00;2.92;;;7.60;99.90;;;;;;4169808;28;20393;-81
2020/12/21 08:37:29;;;;;;;11.57;3.13;;;7.60;99.90;;;;;;4140976;28;20033;-80
2020/12/21 08:39:30;;;;;;;10.25;3.00;;;7.60;99.90;;;;;;4162209;28;20397;-81
2020/12/21 08:41:36;;;;;;;8.68;2.75;;;7.60;99.90;;;;;;4160895;28;20562;-81
2020/12/21 08:43:37;;;;;;;12.95;3.10;;;7.60;99.90;;;;;;4161840;28;20072;-81
2020/12/21 08:45:56;;;;;;;11.68;3.00;;;7.70;99.90;;;;;;4161280;28;20045;-81
2020/12/21 08:47:57;;;;;;;11.07;3.13;;;7.70;99.90;;;;;;4145317;28;20704;-81
2020/12/21 08:50:02;;;;;;;11.23;3.65;;;7.70;99.90;;;;;;4159929;28;20100;-80
2020/12/21 08:52:05;;;;;;;9.82;3.22;;;7.80;99.90;;;;;;4161445;28;20036;-80
2020/12/21 08:54:07;;;;;;;10.70;3.17;;;7.80;99.90;;;;;;4162011;28;20475;-81
2020/12/21 08:56:13;;;;;;;12.70;3.38;;;7.80;99.90;;;;;;4158626;28;20034;-81
2020/12/21 08:58:13;;;;;;;11.70;2.90;;;7.80;99.90;;;;;;4160436;28;20026;-81
2020/12/21 09:00:14;;;;;;;8.55;2.72;;;7.80;99.90;;;;;;4161664;28;20026;-80
2020/12/21 09:02:14;;;;;;;13.77;3.25;;;7.90;99.90;;;;;;4160510;28;20091;-80
2020/12/21 09:04:15;;;;;;;11.38;3.72;;;7.90;99.90;;;;;;4159281;28;20026;-80
2020/12/21 09:06:21;;;;;;;10.85;2.50;;;7.90;99.90;;;;;;4160560;28;20107;-81
2020/12/21 09:08:22;;;;;;;12.15;3.53;;;7.90;99.90;;;;;;4161860;28;20033;-80
2020/12/21 09:10:24;;;;;;;10.13;3.13;;;7.90;99.90;;;;;;4159742;28;20164;-80
2020/12/21 09:12:24;;;;;;;10.07;2.80;;;8.00;99.90;;;;;;4159591;28;20068;-80
2020/12/21 09:14:25;;;;;;;11.77;3.05;;;8.00;99.90;;;;;;4159701;28;20144;-81
2020/12/21 09:16:28;;;;;;;10.07;3.00;;;8.00;99.90;;;;;;4161570;28;20497;-80
2020/12/21 09:18:29;;;;;;;13.00;3.20;;;8.10;99.90;;;;;;4167813;28;20030;-80
2020/12/21 09:20:29;;;;;;;13.20;3.35;;;8.10;99.90;;;;;;4161658;28;20040;-80
2020/12/21 09:22:30;;;;;;;9.13;3.53;;;8.10;99.90;;;;;;4166179;28;20037;-80
2020/12/21 09:24:30;;;;;;;11.55;3.03;;;8.10;99.90;;;;;;4153950;28;20156;-80
2020/12/21 09:26:33;;;;;;;13.50;3.40;;;8.10;99.90;;;;;;4184595;28;20528;-81
2020/12/21 09:28:33;;;;;;;11.80;3.42;;;8.20;99.90;;;;;;4160279;28;20038;-81
2020/12/21 09:30:35;;;;;;;8.90;2.70;;;8.20;99.90;;;;;;4161175;28;20029;-80
2020/12/21 09:32:36;;;;;;;8.67;2.90;;;8.20;99.90;;;;;;4144959;28;20056;-81
2020/12/21 09:34:37;;;;;;;12.65;3.58;;;8.20;99.90;;;;;;4163040;28;20053;-81
2020/12/21 09:36:44;;;;;;;11.50;3.47;;;8.20;99.90;;;;;;4161915;28;20040;-81
2020/12/21 09:38:46;;;;;;;7.35;2.83;;;8.20;99.90;;;;;;4147810;28;20638;-81
2020/12/21 09:40:48;;;;;;;10.00;3.17;;;8.20;99.90;;;;;;4152443;28;20030;-81
2020/12/21 09:43:03;;;;;;;10.77;3.17;;;8.20;99.90;;;;;;4162059;28;20996;-81
2020/12/21 09:45:04;;;;;;;8.85;3.08;;;8.30;99.90;;;;;;4166130;28;20041;-80
2020/12/21 09:47:14;;;;;;;12.32;3.53;;;8.30;99.90;;;;;;4170184;28;20648;-80
2020/12/21 09:49:15;;;;;;;8.65;3.22;;;8.30;99.90;;;;;;4157369;28;20674;-81
2020/12/21 09:51:16;;;;;;;9.57;2.97;;;8.30;99.90;;;;;;4169061;28;20109;-80
2020/12/21 09:53:17;;;;;;;13.70;3.30;;;8.30;99.90;;;;;;4146503;28;20034;-81
2020/12/21 09:55:18;;;;;;;8.85;3.38;;;8.30;99.90;;;;;;4149281;28;20054;-80
2020/12/21 09:57:20;;;;;;;15.70;3.85;;;8.30;99.90;;;;;;4168974;28;20065;-81
2020/12/21 09:59:23;;;;;;;10.68;2.95;;;8.30;99.90;;;;;;4161731;28;20037;-80
2020/12/21 10:01:28;;;;;;;8.93;3.10;;;8.30;99.90;;;;;;4165262;28;20580;-80
2020/12/21 10:03:29;;;;;;;10.27;2.65;;;8.40;99.90;;;;;;4158719;28;20060;-80
2020/12/21 10:05:29;;;;;;;8.82;2.88;;;8.40;99.90;;;;;;4158052;28;20065;-80
2020/12/21 10:07:30;;;;;;;8.77;2.60;;;8.40;99.90;;;;;;4157299;28;20093;-80
2020/12/21 10:09:31;;;;;;;12.90;3.35;;;8.40;99.90;;;;;;4160094;28;20034;-81
2020/12/21 10:11:32;;;;;;;15.20;3.10;;;8.40;99.90;;;;;;4161871;28;20057;-80
2020/12/21 10:13:33;;;;;;;11.15;3.08;;;8.50;99.90;;;;;;4163917;28;20053;-81
2020/12/21 10:15:34;;;;;;;10.18;3.45;;;8.50;99.90;;;;;;4162119;28;20064;-81
2020/12/21 10:17:35;;;;;;;11.70;3.55;;;8.50;99.90;;;;;;4156791;28;20493;-80
2020/12/21 10:19:50;;;;;;;9.73;3.08;;;8.50;99.90;;;;;;4161633;28;20050;-80
2020/12/21 10:22:01;;;;;;;10.82;3.40;;;8.60;99.90;;;;;;4146558;28;20056;-80
2020/12/21 10:24:01;;;;;;;7.50;2.85;;;8.60;99.90;;;;;;4180285;28;20033;-81
2020/12/21 10:26:05;;;;;;;7.53;2.63;;;8.60;99.90;;;;;;4166011;28;20032;-80
2020/12/21 10:28:05;;;;;;;5.60;2.20;;;8.70;99.90;;;;;;4165355;28;20394;-80
2020/12/21 10:30:06;;;;;;;7.72;2.83;;;8.70;99.90;;;;;;4171838;28;20032;-80
2020/12/21 10:32:07;;;;;;;9.52;3.15;;;8.80;99.90;;;;;;4185746;28;20028;-80
2020/12/21 10:34:07;;;;;;;7.70;2.60;;;8.80;99.90;;;;;;4164005;28;20033;-80
2020/12/21 10:36:16;;;;;;;12.25;3.08;;;8.80;99.90;;;;;;4157952;28;20033;-80
2020/12/21 10:38:16;;;;;;;12.93;2.88;;;8.80;99.90;;;;;;4176218;28;20083;-80
2020/12/21 10:40:17;;;;;;;10.40;2.97;;;8.80;99.90;;;;;;4178566;28;20457;-80
2020/12/21 10:42:25;;;;;;;12.70;2.70;;;8.80;99.90;;;;;;4145490;28;20530;-81
2020/12/21 10:44:26;;;;;;;6.97;2.63;;;8.80;99.90;;;;;;4179982;28;20116;-80